sensor_id;sensor_type;location;lat;lon;timestamp;P1;durP1;ratioP1;P2;durP2;ratioP2
65706;SDS011;52423;43.512;5.220;2023-02-15T00:01:51;42.22;;;29.17;;
65706;SDS011;52423;43.512;5.220;2023-02-15T00:04:18;39.50;;;28.52;;
65706;SDS011;52423;43.512;5.220;2023-02-15T00:06:45;48.60;;;29.48;;
65706;SDS011;52423;43.512;5.220;2023-02-15T00:09:11;41.30;;;28.30;;
65706;SDS011;52423;43.512;5.220;2023-02-15T00:11:37;40.10;;;28.13;;
65706;SDS011;52423;43.512;5.220;2023-02-15T00:14:09;37.88;;;27.80;;
65706;SDS011;52423;43.512;5.220;2023-02-15T00:16:43;46.70;;;28.15;;
65706;SDS011;52423;43.512;5.220;2023-02-15T00:19:10;37.83;;;26.83;;
65706;SDS011;52423;43.512;5.220;2023-02-15T00:21:37;45.60;;;28.13;;
65706;SDS011;52423;43.512;5.220;2023-02-15T00:24:04;46.60;;;26.27;;
65706;SDS011;52423;43.512;5.220;2023-02-15T00:26:30;43.35;;;27.90;;
65706;SDS011;52423;43.512;5.220;2023-02-15T00:28:56;41.42;;;27.15;;
65706;SDS011;52423;43.512;5.220;2023-02-15T00:31:26;37.58;;;27.83;;
65706;SDS011;52423;43.512;5.220;2023-02-15T00:33:52;37.78;;;25.92;;
65706;SDS011;52423;43.512;5.220;2023-02-15T00:36:17;34.60;;;25.55;;
65706;SDS011;52423;43.512;5.220;2023-02-15T00:38:43;38.22;;;26.42;;
65706;SDS011;52423;43.512;5.220;2023-02-15T00:41:08;35.78;;;26.70;;
65706;SDS011;52423;43.512;5.220;2023-02-15T00:43:34;35.65;;;26.25;;
65706;SDS011;52423;43.512;5.220;2023-02-15T00:46:00;39.22;;;27.60;;
65706;SDS011;52423;43.512;5.220;2023-02-15T00:48:27;43.13;;;27.00;;
65706;SDS011;52423;43.512;5.220;2023-02-15T00:50:54;42.95;;;27.48;;
65706;SDS011;52423;43.512;5.220;2023-02-15T00:53:21;36.75;;;27.30;;
65706;SDS011;52423;43.512;5.220;2023-02-15T00:55:47;39.63;;;28.17;;
65706;SDS011;52423;43.512;5.220;2023-02-15T00:58:12;38.20;;;27.00;;
65706;SDS011;52423;43.512;5.220;2023-02-15T01:00:38;37.67;;;28.15;;
65706;SDS011;52423;43.512;5.220;2023-02-15T01:03:06;40.22;;;28.70;;
65706;SDS011;52423;43.512;5.220;2023-02-15T01:05:31;40.45;;;30.10;;
65706;SDS011;52423;43.512;5.220;2023-02-15T01:07:57;41.53;;;28.42;;
65706;SDS011;52423;43.512;5.220;2023-02-15T01:10:23;43.25;;;28.55;;
65706;SDS011;52423;43.512;5.220;2023-02-15T01:12:50;41.63;;;29.42;;
65706;SDS011;52423;43.512;5.220;2023-02-15T01:15:16;47.03;;;31.30;;
65706;SDS011;52423;43.512;5.220;2023-02-15T01:17:42;40.22;;;28.73;;
65706;SDS011;52423;43.512;5.220;2023-02-15T01:20:09;43.25;;;28.90;;
65706;SDS011;52423;43.512;5.220;2023-02-15T01:22:34;37.67;;;26.83;;
65706;SDS011;52423;43.512;5.220;2023-02-15T01:25:00;39.88;;;26.80;;
65706;SDS011;52423;43.512;5.220;2023-02-15T01:27:25;37.38;;;27.85;;
65706;SDS011;52423;43.512;5.220;2023-02-15T01:29:50;37.08;;;26.67;;
65706;SDS011;52423;43.512;5.220;2023-02-15T01:32:16;38.00;;;27.90;;
65706;SDS011;52423;43.512;5.220;2023-02-15T01:34:41;42.22;;;28.75;;
65706;SDS011;52423;43.512;5.220;2023-02-15T01:37:06;42.10;;;27.55;;
65706;SDS011;52423;43.512;5.220;2023-02-15T01:39:32;38.88;;;27.42;;
65706;SDS011;52423;43.512;5.220;2023-02-15T01:41:57;36.90;;;26.95;;
65706;SDS011;52423;43.512;5.220;2023-02-15T01:47:16;37.50;;;27.73;;
65706;SDS011;52423;43.512;5.220;2023-02-15T01:50:16;39.33;;;27.83;;
65706;SDS011;52423;43.512;5.220;2023-02-15T01:55:30;39.00;;;28.17;;
65706;SDS011;52423;43.512;5.220;2023-02-15T01:58:01;38.72;;;28.88;;
65706;SDS011;52423;43.512;5.220;2023-02-15T02:00:27;38.30;;;29.00;;
65706;SDS011;52423;43.512;5.220;2023-02-15T02:02:53;42.05;;;27.77;;
65706;SDS011;52423;43.512;5.220;2023-02-15T02:05:20;39.08;;;28.08;;
65706;SDS011;52423;43.512;5.220;2023-02-15T02:07:46;41.00;;;28.83;;
65706;SDS011;52423;43.512;5.220;2023-02-15T02:10:15;44.30;;;29.33;;
65706;SDS011;52423;43.512;5.220;2023-02-15T02:12:42;38.80;;;28.65;;
65706;SDS011;52423;43.512;5.220;2023-02-15T02:15:10;40.67;;;29.20;;
65706;SDS011;52423;43.512;5.220;2023-02-15T02:17:42;38.50;;;28.02;;
65706;SDS011;52423;43.512;5.220;2023-02-15T02:36:41;34.60;;;25.83;;
65706;SDS011;52423;43.512;5.220;2023-02-15T02:39:22;35.47;;;26.45;;
65706;SDS011;52423;43.512;5.220;2023-02-15T02:47:14;37.22;;;27.48;;
65706;SDS011;52423;43.512;5.220;2023-02-15T02:49:42;37.47;;;26.58;;
65706;SDS011;52423;43.512;5.220;2023-02-15T02:55:11;38.15;;;27.20;;
65706;SDS011;52423;43.512;5.220;2023-02-15T02:58:07;40.03;;;27.05;;
65706;SDS011;52423;43.512;5.220;2023-02-15T03:03:18;33.90;;;25.80;;
65706;SDS011;52423;43.512;5.220;2023-02-15T03:05:53;37.63;;;26.95;;
65706;SDS011;52423;43.512;5.220;2023-02-15T03:08:23;35.75;;;27.02;;
65706;SDS011;52423;43.512;5.220;2023-02-15T03:10:54;40.85;;;25.92;;
65706;SDS011;52423;43.512;5.220;2023-02-15T03:13:22;33.75;;;25.30;;
65706;SDS011;52423;43.512;5.220;2023-02-15T03:15:48;35.40;;;25.98;;
65706;SDS011;52423;43.512;5.220;2023-02-15T03:18:35;33.58;;;24.27;;
65706;SDS011;52423;43.512;5.220;2023-02-15T03:21:04;38.65;;;26.48;;
65706;SDS011;52423;43.512;5.220;2023-02-15T03:23:31;38.13;;;27.27;;
65706;SDS011;52423;43.512;5.220;2023-02-15T03:25:59;40.85;;;27.10;;
65706;SDS011;52423;43.512;5.220;2023-02-15T03:28:36;35.22;;;26.02;;
65706;SDS011;52423;43.512;5.220;2023-02-15T03:31:06;36.22;;;26.23;;
65706;SDS011;52423;43.512;5.220;2023-02-15T03:33:35;36.20;;;27.00;;
65706;SDS011;52423;43.512;5.220;2023-02-15T03:38:50;36.00;;;26.10;;
65706;SDS011;52423;43.512;5.220;2023-02-15T03:41:24;34.97;;;23.67;;
65706;SDS011;52423;43.512;5.220;2023-02-15T03:44:00;37.15;;;25.63;;
65706;SDS011;52423;43.512;5.220;2023-02-15T03:46:45;34.28;;;24.67;;
65706;SDS011;52423;43.512;5.220;2023-02-15T03:49:18;38.53;;;24.55;;
65706;SDS011;52423;43.512;5.220;2023-02-15T03:51:48;35.20;;;24.23;;
65706;SDS011;52423;43.512;5.220;2023-02-15T03:54:17;34.35;;;24.58;;
65706;SDS011;52423;43.512;5.220;2023-02-15T04:00:19;32.35;;;23.17;;
65706;SDS011;52423;43.512;5.220;2023-02-15T04:08:27;34.65;;;22.90;;
65706;SDS011;52423;43.512;5.220;2023-02-15T04:11:12;34.17;;;23.77;;
65706;SDS011;52423;43.512;5.220;2023-02-15T04:13:37;36.50;;;25.05;;
65706;SDS011;52423;43.512;5.220;2023-02-15T04:16:03;33.03;;;23.48;;
65706;SDS011;52423;43.512;5.220;2023-02-15T04:18:41;35.08;;;24.48;;
65706;SDS011;52423;43.512;5.220;2023-02-15T04:21:27;33.75;;;23.17;;
65706;SDS011;52423;43.512;5.220;2023-02-15T04:24:12;33.28;;;23.67;;
65706;SDS011;52423;43.512;5.220;2023-02-15T04:26:57;38.70;;;24.30;;
65706;SDS011;52423;43.512;5.220;2023-02-15T04:29:23;33.38;;;23.70;;
65706;SDS011;52423;43.512;5.220;2023-02-15T04:31:50;34.83;;;24.88;;
65706;SDS011;52423;43.512;5.220;2023-02-15T04:34:16;37.90;;;24.95;;
65706;SDS011;52423;43.512;5.220;2023-02-15T04:36:41;35.55;;;24.40;;
65706;SDS011;52423;43.512;5.220;2023-02-15T04:39:07;38.65;;;25.27;;
65706;SDS011;52423;43.512;5.220;2023-02-15T04:41:33;34.67;;;24.17;;
65706;SDS011;52423;43.512;5.220;2023-02-15T04:43:59;38.95;;;25.13;;
65706;SDS011;52423;43.512;5.220;2023-02-15T04:46:25;40.15;;;25.40;;
65706;SDS011;52423;43.512;5.220;2023-02-15T04:48:51;38.80;;;25.48;;
65706;SDS011;52423;43.512;5.220;2023-02-15T04:51:17;36.83;;;26.05;;
65706;SDS011;52423;43.512;5.220;2023-02-15T04:53:42;35.10;;;24.58;;
65706;SDS011;52423;43.512;5.220;2023-02-15T04:56:08;39.75;;;25.42;;
65706;SDS011;52423;43.512;5.220;2023-02-15T04:58:33;37.70;;;24.33;;
65706;SDS011;52423;43.512;5.220;2023-02-15T05:01:00;35.88;;;25.20;;
65706;SDS011;52423;43.512;5.220;2023-02-15T05:03:25;40.40;;;25.33;;
65706;SDS011;52423;43.512;5.220;2023-02-15T05:05:51;38.45;;;25.02;;
65706;SDS011;52423;43.512;5.220;2023-02-15T05:08:16;39.95;;;24.50;;
65706;SDS011;52423;43.512;5.220;2023-02-15T05:10:42;43.03;;;25.25;;
65706;SDS011;52423;43.512;5.220;2023-02-15T05:13:07;46.13;;;26.80;;
65706;SDS011;52423;43.512;5.220;2023-02-15T05:15:33;42.05;;;25.92;;
65706;SDS011;52423;43.512;5.220;2023-02-15T05:17:58;40.88;;;25.05;;
65706;SDS011;52423;43.512;5.220;2023-02-15T05:20:23;47.30;;;26.30;;
65706;SDS011;52423;43.512;5.220;2023-02-15T05:22:52;47.97;;;26.42;;
65706;SDS011;52423;43.512;5.220;2023-02-15T05:25:18;45.42;;;26.13;;
65706;SDS011;52423;43.512;5.220;2023-02-15T05:28:02;45.03;;;25.95;;
65706;SDS011;52423;43.512;5.220;2023-02-15T05:30:47;41.35;;;26.02;;
65706;SDS011;52423;43.512;5.220;2023-02-15T05:33:13;43.38;;;24.63;;
65706;SDS011;52423;43.512;5.220;2023-02-15T05:35:39;41.17;;;24.25;;
65706;SDS011;52423;43.512;5.220;2023-02-15T05:38:04;45.70;;;25.23;;
65706;SDS011;52423;43.512;5.220;2023-02-15T05:40:30;48.25;;;26.98;;
65706;SDS011;52423;43.512;5.220;2023-02-15T05:42:56;45.80;;;26.50;;
65706;SDS011;52423;43.512;5.220;2023-02-15T05:45:21;44.38;;;25.98;;
65706;SDS011;52423;43.512;5.220;2023-02-15T05:47:47;45.28;;;26.27;;
65706;SDS011;52423;43.512;5.220;2023-02-15T05:50:12;40.92;;;25.33;;
65706;SDS011;52423;43.512;5.220;2023-02-15T05:52:38;41.78;;;24.70;;
65706;SDS011;52423;43.512;5.220;2023-02-15T05:55:04;41.90;;;24.90;;
65706;SDS011;52423;43.512;5.220;2023-02-15T05:57:30;44.90;;;25.33;;
65706;SDS011;52423;43.512;5.220;2023-02-15T05:59:56;47.03;;;25.52;;
65706;SDS011;52423;43.512;5.220;2023-02-15T06:02:21;47.72;;;24.80;;
65706;SDS011;52423;43.512;5.220;2023-02-15T06:04:46;46.13;;;24.77;;
65706;SDS011;52423;43.512;5.220;2023-02-15T06:07:12;42.75;;;23.63;;
65706;SDS011;52423;43.512;5.220;2023-02-15T06:09:37;40.63;;;22.77;;
65706;SDS011;52423;43.512;5.220;2023-02-15T06:12:03;37.30;;;23.02;;
65706;SDS011;52423;43.512;5.220;2023-02-15T06:14:28;41.22;;;22.83;;
65706;SDS011;52423;43.512;5.220;2023-02-15T06:16:53;43.35;;;23.65;;
65706;SDS011;52423;43.512;5.220;2023-02-15T06:19:19;39.88;;;23.13;;
65706;SDS011;52423;43.512;5.220;2023-02-15T06:21:46;39.15;;;22.75;;
65706;SDS011;52423;43.512;5.220;2023-02-15T06:24:11;39.30;;;22.50;;
65706;SDS011;52423;43.512;5.220;2023-02-15T06:26:37;37.88;;;22.13;;
65706;SDS011;52423;43.512;5.220;2023-02-15T06:29:02;40.78;;;22.48;;
65706;SDS011;52423;43.512;5.220;2023-02-15T06:31:28;35.25;;;21.75;;
65706;SDS011;52423;43.512;5.220;2023-02-15T06:33:54;36.83;;;20.67;;
65706;SDS011;52423;43.512;5.220;2023-02-15T06:36:25;46.05;;;21.85;;
65706;SDS011;52423;43.512;5.220;2023-02-15T06:38:55;34.55;;;21.35;;
65706;SDS011;52423;43.512;5.220;2023-02-15T06:41:21;33.90;;;20.58;;
65706;SDS011;52423;43.512;5.220;2023-02-15T06:43:47;41.58;;;21.77;;
65706;SDS011;52423;43.512;5.220;2023-02-15T06:46:13;41.78;;;20.80;;
65706;SDS011;52423;43.512;5.220;2023-02-15T06:48:39;43.63;;;22.13;;
65706;SDS011;52423;43.512;5.220;2023-02-15T06:51:04;38.28;;;21.60;;
65706;SDS011;52423;43.512;5.220;2023-02-15T06:53:29;40.50;;;20.80;;
65706;SDS011;52423;43.512;5.220;2023-02-15T06:56:05;37.95;;;21.08;;
65706;SDS011;52423;43.512;5.220;2023-02-15T06:58:33;36.78;;;21.55;;
65706;SDS011;52423;43.512;5.220;2023-02-15T07:00:59;35.58;;;20.55;;
65706;SDS011;52423;43.512;5.220;2023-02-15T07:03:25;38.63;;;20.70;;
65706;SDS011;52423;43.512;5.220;2023-02-15T07:05:54;42.70;;;20.67;;
65706;SDS011;52423;43.512;5.220;2023-02-15T07:08:20;39.92;;;21.92;;
65706;SDS011;52423;43.512;5.220;2023-02-15T07:10:46;41.10;;;21.63;;
65706;SDS011;52423;43.512;5.220;2023-02-15T07:13:15;40.50;;;21.88;;
65706;SDS011;52423;43.512;5.220;2023-02-15T07:15:40;42.97;;;21.80;;
65706;SDS011;52423;43.512;5.220;2023-02-15T07:18:06;42.60;;;22.50;;
65706;SDS011;52423;43.512;5.220;2023-02-15T07:20:34;44.45;;;22.90;;
65706;SDS011;52423;43.512;5.220;2023-02-15T07:23:00;47.40;;;22.42;;
65706;SDS011;52423;43.512;5.220;2023-02-15T07:25:26;46.50;;;22.60;;
65706;SDS011;52423;43.512;5.220;2023-02-15T07:27:56;44.38;;;22.80;;
65706;SDS011;52423;43.512;5.220;2023-02-15T07:30:22;47.92;;;22.67;;
65706;SDS011;52423;43.512;5.220;2023-02-15T07:32:47;44.22;;;22.65;;
65706;SDS011;52423;43.512;5.220;2023-02-15T07:35:32;50.08;;;23.05;;
65706;SDS011;52423;43.512;5.220;2023-02-15T07:37:58;44.80;;;23.10;;
65706;SDS011;52423;43.512;5.220;2023-02-15T07:40:23;42.92;;;21.88;;
65706;SDS011;52423;43.512;5.220;2023-02-15T07:42:49;44.88;;;22.80;;
65706;SDS011;52423;43.512;5.220;2023-02-15T07:45:17;46.47;;;22.45;;
65706;SDS011;52423;43.512;5.220;2023-02-15T07:47:42;39.60;;;20.52;;
65706;SDS011;52423;43.512;5.220;2023-02-15T07:50:08;46.63;;;20.75;;
65706;SDS011;52423;43.512;5.220;2023-02-15T07:52:34;40.83;;;21.15;;
65706;SDS011;52423;43.512;5.220;2023-02-15T07:54:59;36.05;;;20.17;;
65706;SDS011;52423;43.512;5.220;2023-02-15T07:57:24;37.00;;;19.55;;
65706;SDS011;52423;43.512;5.220;2023-02-15T07:59:50;33.03;;;18.40;;
65706;SDS011;52423;43.512;5.220;2023-02-15T08:02:15;35.97;;;19.05;;
65706;SDS011;52423;43.512;5.220;2023-02-15T08:04:40;35.85;;;19.55;;
65706;SDS011;52423;43.512;5.220;2023-02-15T08:07:06;32.22;;;18.45;;
65706;SDS011;52423;43.512;5.220;2023-02-15T08:09:32;32.95;;;18.58;;
65706;SDS011;52423;43.512;5.220;2023-02-15T08:11:57;34.72;;;20.38;;
65706;SDS011;52423;43.512;5.220;2023-02-15T08:14:22;30.77;;;17.17;;
65706;SDS011;52423;43.512;5.220;2023-02-15T08:16:58;28.60;;;17.40;;
65706;SDS011;52423;43.512;5.220;2023-02-15T08:19:31;27.85;;;16.95;;
65706;SDS011;52423;43.512;5.220;2023-02-15T08:21:58;30.63;;;17.42;;
65706;SDS011;52423;43.512;5.220;2023-02-15T08:24:26;35.13;;;17.60;;
65706;SDS011;52423;43.512;5.220;2023-02-15T08:26:53;28.05;;;16.90;;
65706;SDS011;52423;43.512;5.220;2023-02-15T08:29:20;28.52;;;16.05;;
65706;SDS011;52423;43.512;5.220;2023-02-15T08:31:52;29.13;;;16.23;;
65706;SDS011;52423;43.512;5.220;2023-02-15T08:34:19;33.00;;;16.33;;
65706;SDS011;52423;43.512;5.220;2023-02-15T08:36:45;27.20;;;15.00;;
65706;SDS011;52423;43.512;5.220;2023-02-15T08:39:11;23.73;;;14.18;;
65706;SDS011;52423;43.512;5.220;2023-02-15T08:41:39;23.10;;;14.98;;
65706;SDS011;52423;43.512;5.220;2023-02-15T08:44:08;27.80;;;15.52;;
65706;SDS011;52423;43.512;5.220;2023-02-15T08:46:37;25.65;;;16.20;;
65706;SDS011;52423;43.512;5.220;2023-02-15T08:49:04;24.63;;;15.13;;
65706;SDS011;52423;43.512;5.220;2023-02-15T08:51:31;25.70;;;15.05;;
65706;SDS011;52423;43.512;5.220;2023-02-15T08:54:05;22.67;;;14.55;;
65706;SDS011;52423;43.512;5.220;2023-02-15T08:59:01;23.33;;;14.90;;
65706;SDS011;52423;43.512;5.220;2023-02-15T09:01:29;24.45;;;14.60;;
65706;SDS011;52423;43.512;5.220;2023-02-15T09:03:57;21.92;;;15.20;;
65706;SDS011;52423;43.512;5.220;2023-02-15T09:06:24;24.38;;;14.80;;
65706;SDS011;52423;43.512;5.220;2023-02-15T09:08:50;25.13;;;15.00;;
65706;SDS011;52423;43.512;5.220;2023-02-15T09:11:18;25.05;;;15.48;;
65706;SDS011;52423;43.512;5.220;2023-02-15T09:13:49;23.80;;;16.27;;
65706;SDS011;52423;43.512;5.220;2023-02-15T09:16:17;21.25;;;13.80;;
65706;SDS011;52423;43.512;5.220;2023-02-15T09:18:42;26.45;;;14.98;;
65706;SDS011;52423;43.512;5.220;2023-02-15T09:21:12;19.25;;;13.68;;
65706;SDS011;52423;43.512;5.220;2023-02-15T09:23:42;20.73;;;15.25;;
65706;SDS011;52423;43.512;5.220;2023-02-15T09:26:11;20.70;;;14.73;;
65706;SDS011;52423;43.512;5.220;2023-02-15T09:28:39;20.92;;;14.65;;
65706;SDS011;52423;43.512;5.220;2023-02-15T09:33:33;24.92;;;14.88;;
65706;SDS011;52423;43.512;5.220;2023-02-15T09:35:59;19.45;;;14.57;;
65706;SDS011;52423;43.512;5.220;2023-02-15T09:38:24;19.48;;;13.63;;
65706;SDS011;52423;43.512;5.220;2023-02-15T09:40:53;20.00;;;12.82;;
65706;SDS011;52423;43.512;5.220;2023-02-15T09:43:54;14.75;;;12.23;;
65706;SDS011;52423;43.512;5.220;2023-02-15T09:46:25;17.92;;;13.35;;
65706;SDS011;52423;43.512;5.220;2023-02-15T09:49:10;19.25;;;13.30;;
65706;SDS011;52423;43.512;5.220;2023-02-15T09:52:02;17.45;;;11.68;;
65706;SDS011;52423;43.512;5.220;2023-02-15T09:54:47;14.90;;;11.77;;
65706;SDS011;52423;43.512;5.220;2023-02-15T10:00:02;15.55;;;11.70;;
65706;SDS011;52423;43.512;5.220;2023-02-15T10:02:44;18.73;;;12.00;;
65706;SDS011;52423;43.512;5.220;2023-02-15T10:05:44;16.83;;;12.15;;
65706;SDS011;52423;43.512;5.220;2023-02-15T10:08:31;16.40;;;11.43;;
65706;SDS011;52423;43.512;5.220;2023-02-15T10:11:17;14.88;;;11.20;;
65706;SDS011;52423;43.512;5.220;2023-02-15T10:28:02;13.43;;;10.60;;
65706;SDS011;52423;43.512;5.220;2023-02-15T10:30:41;12.93;;;10.60;;
65706;SDS011;52423;43.512;5.220;2023-02-15T10:36:11;16.98;;;12.05;;
65706;SDS011;52423;43.512;5.220;2023-02-15T10:58:10;12.70;;;10.00;;
65706;SDS011;52423;43.512;5.220;2023-02-15T11:00:56;15.45;;;9.65;;
65706;SDS011;52423;43.512;5.220;2023-02-15T11:06:43;11.88;;;8.73;;
65706;SDS011;52423;43.512;5.220;2023-02-15T11:09:16;11.43;;;9.00;;
65706;SDS011;52423;43.512;5.220;2023-02-15T11:11:47;7.50;;;6.80;;
65706;SDS011;52423;43.512;5.220;2023-02-15T11:14:17;8.02;;;7.10;;
65706;SDS011;52423;43.512;5.220;2023-02-15T11:16:46;9.93;;;6.57;;
65706;SDS011;52423;43.512;5.220;2023-02-15T11:19:22;12.85;;;8.68;;
65706;SDS011;52423;43.512;5.220;2023-02-15T11:21:55;14.63;;;8.90;;
65706;SDS011;52423;43.512;5.220;2023-02-15T11:24:26;11.93;;;9.50;;
65706;SDS011;52423;43.512;5.220;2023-02-15T11:26:56;11.85;;;9.32;;
65706;SDS011;52423;43.512;5.220;2023-02-15T11:32:14;13.75;;;9.95;;
65706;SDS011;52423;43.512;5.220;2023-02-15T11:34:50;15.15;;;11.90;;
65706;SDS011;52423;43.512;5.220;2023-02-15T11:37:28;21.50;;;14.43;;
65706;SDS011;52423;43.512;5.220;2023-02-15T11:40:00;22.15;;;15.95;;
65706;SDS011;52423;43.512;5.220;2023-02-15T11:42:28;23.48;;;15.93;;
65706;SDS011;52423;43.512;5.220;2023-02-15T11:45:02;24.17;;;16.42;;
65706;SDS011;52423;43.512;5.220;2023-02-15T11:47:32;25.05;;;17.15;;
65706;SDS011;52423;43.512;5.220;2023-02-15T11:49:58;28.55;;;17.15;;
65706;SDS011;52423;43.512;5.220;2023-02-15T11:52:24;20.05;;;14.70;;
65706;SDS011;52423;43.512;5.220;2023-02-15T11:54:50;19.15;;;13.93;;
65706;SDS011;52423;43.512;5.220;2023-02-15T11:57:27;20.10;;;13.38;;
65706;SDS011;52423;43.512;5.220;2023-02-15T12:02:52;7.82;;;6.95;;
65706;SDS011;52423;43.512;5.220;2023-02-15T12:05:20;6.68;;;5.03;;
65706;SDS011;52423;43.512;5.220;2023-02-15T12:07:50;7.22;;;5.63;;
65706;SDS011;52423;43.512;5.220;2023-02-15T12:15:35;7.00;;;5.00;;
65706;SDS011;52423;43.512;5.220;2023-02-15T12:18:01;6.93;;;5.53;;
65706;SDS011;52423;43.512;5.220;2023-02-15T12:20:33;7.07;;;6.28;;
65706;SDS011;52423;43.512;5.220;2023-02-15T12:23:04;7.47;;;5.88;;
65706;SDS011;52423;43.512;5.220;2023-02-15T12:25:52;6.75;;;5.80;;
65706;SDS011;52423;43.512;5.220;2023-02-15T12:30:58;8.80;;;4.93;;
65706;SDS011;52423;43.512;5.220;2023-02-15T12:36:29;8.35;;;5.53;;
65706;SDS011;52423;43.512;5.220;2023-02-15T12:41:37;10.27;;;5.63;;
65706;SDS011;52423;43.512;5.220;2023-02-15T12:44:18;6.70;;;5.97;;
65706;SDS011;52423;43.512;5.220;2023-02-15T12:49:42;13.03;;;6.20;;
65706;SDS011;52423;43.512;5.220;2023-02-15T12:54:45;6.07;;;4.90;;
65706;SDS011;52423;43.512;5.220;2023-02-15T12:59:50;6.47;;;5.30;;
65706;SDS011;52423;43.512;5.220;2023-02-15T13:02:22;5.75;;;4.93;;
65706;SDS011;52423;43.512;5.220;2023-02-15T13:04:53;8.63;;;5.28;;
65706;SDS011;52423;43.512;5.220;2023-02-15T13:07:20;6.38;;;5.22;;
65706;SDS011;52423;43.512;5.220;2023-02-15T13:09:46;6.57;;;5.43;;
65706;SDS011;52423;43.512;5.220;2023-02-15T13:14:51;6.95;;;6.07;;
65706;SDS011;52423;43.512;5.220;2023-02-15T13:17:26;7.18;;;6.47;;
65706;SDS011;52423;43.512;5.220;2023-02-15T13:19:55;8.48;;;6.05;;
65706;SDS011;52423;43.512;5.220;2023-02-15T13:22:38;6.55;;;5.88;;
65706;SDS011;52423;43.512;5.220;2023-02-15T13:25:14;9.02;;;6.05;;
65706;SDS011;52423;43.512;5.220;2023-02-15T13:27:44;8.68;;;6.30;;
65706;SDS011;52423;43.512;5.220;2023-02-15T13:30:53;7.13;;;5.80;;
65706;SDS011;52423;43.512;5.220;2023-02-15T13:33:04;5.88;;;5.28;;
65706;SDS011;52423;43.512;5.220;2023-02-15T13:35:42;5.78;;;5.10;;
65706;SDS011;52423;43.512;5.220;2023-02-15T13:41:12;11.27;;;4.80;;
65706;SDS011;52423;43.512;5.220;2023-02-15T13:46:25;6.15;;;5.32;;
65706;SDS011;52423;43.512;5.220;2023-02-15T13:49:19;5.95;;;4.82;;
65706;SDS011;52423;43.512;5.220;2023-02-15T13:52:08;6.18;;;5.35;;
65706;SDS011;52423;43.512;5.220;2023-02-15T13:55:00;7.80;;;5.30;;
65706;SDS011;52423;43.512;5.220;2023-02-15T14:00:22;5.28;;;4.78;;
65706;SDS011;52423;43.512;5.220;2023-02-15T14:11:16;6.13;;;4.60;;
65706;SDS011;52423;43.512;5.220;2023-02-15T14:16:23;4.20;;;3.83;;
65706;SDS011;52423;43.512;5.220;2023-02-15T14:32:51;3.40;;;3.10;;
65706;SDS011;52423;43.512;5.220;2023-02-15T14:35:20;3.90;;;3.42;;
65706;SDS011;52423;43.512;5.220;2023-02-15T14:37:55;7.72;;;3.50;;
65706;SDS011;52423;43.512;5.220;2023-02-15T14:52:13;4.38;;;3.75;;
65706;SDS011;52423;43.512;5.220;2023-02-15T14:54:08;4.20;;;3.80;;
65706;SDS011;52423;43.512;5.220;2023-02-15T14:56:35;5.70;;;3.70;;
65706;SDS011;52423;43.512;5.220;2023-02-15T14:59:17;4.15;;;3.50;;
65706;SDS011;52423;43.512;5.220;2023-02-15T15:02:18;6.60;;;3.67;;
65706;SDS011;52423;43.512;5.220;2023-02-15T15:04:43;5.93;;;3.28;;
65706;SDS011;52423;43.512;5.220;2023-02-15T15:07:19;4.72;;;3.88;;
65706;SDS011;52423;43.512;5.220;2023-02-15T15:09:49;6.93;;;3.95;;
65706;SDS011;52423;43.512;5.220;2023-02-15T15:14:50;6.45;;;4.47;;
65706;SDS011;52423;43.512;5.220;2023-02-15T15:20:12;5.05;;;4.20;;
65706;SDS011;52423;43.512;5.220;2023-02-15T15:25:49;6.38;;;4.00;;
65706;SDS011;52423;43.512;5.220;2023-02-15T15:31:02;4.45;;;3.88;;
65706;SDS011;52423;43.512;5.220;2023-02-15T15:41:42;7.32;;;4.03;;
65706;SDS011;52423;43.512;5.220;2023-02-15T15:50:04;13.38;;;9.20;;
65706;SDS011;52423;43.512;5.220;2023-02-15T15:52:38;11.68;;;7.97;;
65706;SDS011;52423;43.512;5.220;2023-02-15T15:55:19;7.72;;;6.93;;
65706;SDS011;52423;43.512;5.220;2023-02-15T15:57:49;9.77;;;6.03;;
65706;SDS011;52423;43.512;5.220;2023-02-15T16:03:13;13.10;;;7.90;;
65706;SDS011;52423;43.512;5.220;2023-02-15T16:05:41;20.70;;;9.00;;
65706;SDS011;52423;43.512;5.220;2023-02-15T16:08:06;14.93;;;12.07;;
65706;SDS011;52423;43.512;5.220;2023-02-15T16:10:32;15.25;;;11.35;;
65706;SDS011;52423;43.512;5.220;2023-02-15T16:12:59;13.85;;;10.65;;
65706;SDS011;52423;43.512;5.220;2023-02-15T16:15:30;34.47;;;11.88;;
65706;SDS011;52423;43.512;5.220;2023-02-15T16:18:00;29.90;;;9.82;;
65706;SDS011;52423;43.512;5.220;2023-02-15T16:20:27;18.30;;;8.70;;
65706;SDS011;52423;43.512;5.220;2023-02-15T16:23:15;21.02;;;9.27;;
65706;SDS011;52423;43.512;5.220;2023-02-15T16:25:55;12.45;;;7.60;;
65706;SDS011;52423;43.512;5.220;2023-02-15T16:28:30;7.60;;;6.55;;
65706;SDS011;52423;43.512;5.220;2023-02-15T16:31:07;7.38;;;5.97;;
65706;SDS011;52423;43.512;5.220;2023-02-15T16:33:38;6.00;;;5.50;;
65706;SDS011;52423;43.512;5.220;2023-02-15T16:36:05;7.05;;;6.13;;
65706;SDS011;52423;43.512;5.220;2023-02-15T16:41:07;20.25;;;14.65;;
65706;SDS011;52423;43.512;5.220;2023-02-15T16:43:35;19.20;;;12.00;;
65706;SDS011;52423;43.512;5.220;2023-02-15T16:46:03;12.27;;;9.50;;
65706;SDS011;52423;43.512;5.220;2023-02-15T16:48:30;17.20;;;10.25;;
65706;SDS011;52423;43.512;5.220;2023-02-15T16:50:58;16.05;;;8.57;;
65706;SDS011;52423;43.512;5.220;2023-02-15T16:53:27;12.70;;;10.05;;
65706;SDS011;52423;43.512;5.220;2023-02-15T16:55:57;14.38;;;9.63;;
65706;SDS011;52423;43.512;5.220;2023-02-15T16:58:41;14.73;;;9.30;;
65706;SDS011;52423;43.512;5.220;2023-02-15T17:01:09;21.27;;;10.65;;
65706;SDS011;52423;43.512;5.220;2023-02-15T17:03:38;27.48;;;17.38;;
65706;SDS011;52423;43.512;5.220;2023-02-15T17:06:05;24.15;;;16.20;;
65706;SDS011;52423;43.512;5.220;2023-02-15T17:08:47;28.35;;;17.33;;
65706;SDS011;52423;43.512;5.220;2023-02-15T17:11:20;24.42;;;16.85;;
65706;SDS011;52423;43.512;5.220;2023-02-15T17:16:31;20.52;;;14.65;;
65706;SDS011;52423;43.512;5.220;2023-02-15T17:18:59;26.77;;;13.98;;
65706;SDS011;52423;43.512;5.220;2023-02-15T17:21:33;18.60;;;12.65;;
65706;SDS011;52423;43.512;5.220;2023-02-15T17:24:06;19.75;;;13.13;;
65706;SDS011;52423;43.512;5.220;2023-02-15T17:27:00;19.90;;;13.27;;
65706;SDS011;52423;43.512;5.220;2023-02-15T17:31:54;18.05;;;12.80;;
65706;SDS011;52423;43.512;5.220;2023-02-15T17:37:42;40.95;;;26.98;;
65706;SDS011;52423;43.512;5.220;2023-02-15T17:40:22;36.30;;;24.50;;
65706;SDS011;52423;43.512;5.220;2023-02-15T17:42:49;37.55;;;24.80;;
65706;SDS011;52423;43.512;5.220;2023-02-15T17:45:15;36.03;;;22.55;;
65706;SDS011;52423;43.512;5.220;2023-02-15T17:47:41;31.30;;;21.13;;
65706;SDS011;52423;43.512;5.220;2023-02-15T17:50:08;34.78;;;22.08;;
65706;SDS011;52423;43.512;5.220;2023-02-15T17:52:44;29.50;;;21.45;;
65706;SDS011;52423;43.512;5.220;2023-02-15T17:55:14;27.45;;;21.10;;
65706;SDS011;52423;43.512;5.220;2023-02-15T17:58:06;34.70;;;23.23;;
65706;SDS011;52423;43.512;5.220;2023-02-15T18:00:55;28.63;;;22.83;;
65706;SDS011;52423;43.512;5.220;2023-02-15T18:03:47;30.00;;;21.73;;
65706;SDS011;52423;43.512;5.220;2023-02-15T18:06:33;27.00;;;20.73;;
65706;SDS011;52423;43.512;5.220;2023-02-15T18:09:20;29.30;;;22.42;;
65706;SDS011;52423;43.512;5.220;2023-02-15T18:12:23;36.53;;;26.92;;